createdAt,value
2024-03-15T00:00:54.524Z,100726.31
2024-03-15T00:03:22.316Z,100737.06
2024-03-15T00:05:49.006Z,100729.16
2024-03-15T00:08:15.568Z,100741.75
2024-03-15T00:10:42.180Z,100738.22
2024-03-15T00:13:08.763Z,100740.06
2024-03-15T00:15:35.323Z,100739.22
2024-03-15T00:18:02.431Z,100738.38
2024-03-15T00:20:29.030Z,100735.00
2024-03-15T00:22:55.546Z,100732.31
2024-03-15T00:25:22.583Z,100738.72
2024-03-15T00:27:49.910Z,100738.72
2024-03-15T00:30:16.734Z,100730.81
2024-03-15T00:32:43.805Z,100729.94
2024-03-15T00:35:10.609Z,100730.97
2024-03-15T00:37:37.493Z,100729.13
2024-03-15T00:40:04.922Z,100734.66
2024-03-15T00:42:31.978Z,100729.28
2024-03-15T00:44:58.933Z,100730.97
2024-03-15T00:47:25.738Z,100728.59
2024-03-15T00:49:52.401Z,100721.56
2024-03-15T00:52:19.117Z,100716.19
2024-03-15T00:54:47.239Z,100722.56
2024-03-15T00:57:14.739Z,100716.34
2024-03-15T00:59:41.352Z,100716.50
2024-03-15T01:02:07.859Z,100721.88
2024-03-15T01:04:36.042Z,100723.72
2024-03-15T01:07:03.286Z,100729.94
2024-03-15T01:09:30.977Z,100720.19
2024-03-15T01:11:58.274Z,100722.88
2024-03-15T01:14:24.949Z,100717.50
2024-03-15T01:16:51.552Z,100716.66
2024-03-15T01:19:18.193Z,100709.63
2024-03-15T01:21:44.914Z,100711.47
2024-03-15T01:24:14.007Z,100715.13
2024-03-15T01:26:41.194Z,100717.81
2024-03-15T01:29:09.115Z,100713.28
2024-03-15T01:31:37.015Z,100714.31
2024-03-15T01:34:03.718Z,100702.72
2024-03-15T01:36:30.500Z,100711.78
2024-03-15T01:38:57.172Z,100702.91
2024-03-15T01:41:23.710Z,100704.75
2024-03-15T01:43:50.438Z,100697.66
2024-03-15T01:46:17.939Z,100708.41
2024-03-15T01:48:45.839Z,100701.38
2024-03-15T01:51:13.190Z,100701.38
2024-03-15T01:53:41.063Z,100705.91
2024-03-15T01:56:07.778Z,100698.69
2024-03-15T01:58:34.356Z,100698.84
2024-03-15T02:01:01.053Z,100704.22
2024-03-15T02:03:30.827Z,100703.38
2024-03-15T02:05:57.435Z,100703.38
2024-03-15T02:08:24.018Z,100698.03
2024-03-15T02:10:50.566Z,100700.84
2024-03-15T02:13:17.193Z,100702.53
2024-03-15T02:15:43.990Z,100700.84
2024-03-15T02:18:10.851Z,100704.53
2024-03-15T02:20:38.395Z,100702.88
2024-03-15T02:23:05.108Z,100698.34
2024-03-15T02:25:31.726Z,100693.97
2024-03-15T02:27:58.529Z,100702.03
2024-03-15T02:30:26.847Z,100703.00
2024-03-15T02:32:53.717Z,100699.50
2024-03-15T02:35:27.746Z,100696.81
2024-03-15T02:37:59.139Z,100706.69
2024-03-15T02:40:25.825Z,100695.28
2024-03-15T02:42:53.042Z,100700.63
2024-03-15T02:45:22.616Z,100700.63
2024-03-15T02:47:49.790Z,100700.78
2024-03-15T02:50:16.625Z,100701.78
2024-03-15T02:52:44.745Z,100703.47
2024-03-15T02:55:12.161Z,100700.97
2024-03-15T02:57:38.867Z,100702.81
2024-03-15T03:00:06.158Z,100697.56
2024-03-15T03:02:32.887Z,100701.09
2024-03-15T03:04:59.452Z,100708.31
2024-03-15T03:07:26.083Z,100711.16
2024-03-15T03:09:53.304Z,100706.81
2024-03-15T03:12:20.112Z,100706.81
2024-03-15T03:14:46.908Z,100709.50
2024-03-15T03:17:14.333Z,100710.47
2024-03-15T03:19:40.899Z,100713.16
2024-03-15T03:22:07.631Z,100710.66
2024-03-15T03:24:34.349Z,100715.19
2024-03-15T03:27:01.148Z,100710.81
2024-03-15T03:29:28.066Z,100713.66
2024-03-15T03:31:54.786Z,100716.31
2024-03-15T03:34:21.340Z,100709.28
2024-03-15T03:36:48.018Z,100714.81
2024-03-15T03:39:15.048Z,100713.13
2024-03-15T03:41:41.871Z,100710.59
2024-03-15T03:44:08.753Z,100718.66
2024-03-15T03:46:35.371Z,100708.09
2024-03-15T03:49:02.426Z,100708.25
2024-03-15T03:51:29.069Z,100710.09
2024-03-15T03:53:57.485Z,100705.72
2024-03-15T03:56:24.146Z,100701.38
2024-03-15T03:58:50.844Z,100696.97
2024-03-15T04:01:18.846Z,100697.16
2024-03-15T04:03:50.349Z,100704.38
2024-03-15T04:06:17.462Z,100703.53
2024-03-15T04:08:45.285Z,100701.81
2024-03-15T04:11:11.881Z,100708.06
2024-03-15T04:13:38.451Z,100711.72
2024-03-15T04:16:05.512Z,100711.88
2024-03-15T04:18:33.948Z,100706.53
2024-03-15T04:21:00.876Z,100708.38
2024-03-15T04:23:28.155Z,100698.63
2024-03-15T04:25:56.441Z,100702.16
2024-03-15T04:28:23.277Z,100693.41
2024-03-15T04:30:50.246Z,100697.78
2024-03-15T04:33:18.321Z,100703.13
2024-03-15T04:35:45.049Z,100704.31
2024-03-15T04:38:11.630Z,100692.75
2024-03-15T04:40:38.222Z,100698.13
2024-03-15T04:43:05.297Z,100699.97
2024-03-15T04:45:31.887Z,100692.88
2024-03-15T04:47:59.014Z,100692.06
2024-03-15T04:50:26.054Z,100701.09
2024-03-15T04:52:53.678Z,100695.75
2024-03-15T04:55:23.574Z,100694.06
2024-03-15T04:57:51.088Z,100687.88
2024-03-15T05:00:22.304Z,100695.91
2024-03-15T05:02:51.356Z,100695.03
2024-03-15T05:05:19.505Z,100699.56
2024-03-15T05:07:48.236Z,100699.56
2024-03-15T05:10:16.893Z,100701.59
2024-03-15T05:12:44.887Z,100703.09
2024-03-15T05:15:12.217Z,100696.34
2024-03-15T05:17:39.870Z,100701.72
2024-03-15T05:20:10.474Z,100700.06
2024-03-15T05:22:37.158Z,100701.06
2024-03-15T05:25:06.482Z,100697.53
2024-03-15T05:27:34.340Z,100703.88
2024-03-15T05:30:01.440Z,100707.44
2024-03-15T05:32:29.438Z,100709.41
2024-03-15T05:34:56.412Z,100720.97
2024-03-15T05:37:23.035Z,100713.78
2024-03-15T05:39:49.805Z,100700.69
2024-03-15T05:42:16.677Z,100710.56
2024-03-15T05:44:46.293Z,100716.78
2024-03-15T05:47:16.112Z,100717.78
2024-03-15T05:49:42.767Z,100708.06
2024-03-15T05:52:11.716Z,100703.53
2024-03-15T05:54:38.798Z,100715.25
2024-03-15T05:57:08.164Z,100711.75
2024-03-15T05:59:34.790Z,100724.31
2024-03-15T06:02:01.570Z,100719.94
2024-03-15T06:04:28.240Z,100720.78
2024-03-15T06:06:54.964Z,100718.09
2024-03-15T06:09:21.738Z,100713.72
2024-03-15T06:11:50.277Z,100724.44
2024-03-15T06:14:17.237Z,100720.09
2024-03-15T06:16:44.742Z,100719.25
2024-03-15T06:19:11.432Z,100712.22
2024-03-15T06:21:38.169Z,100720.25
2024-03-15T06:24:07.928Z,100725.63
2024-03-15T06:26:34.627Z,100725.63
2024-03-15T06:29:01.801Z,100726.47
2024-03-15T06:31:28.990Z,100728.31
2024-03-15T06:33:58.130Z,100728.31
2024-03-15T06:36:31.317Z,100724.78
2024-03-15T06:39:10.324Z,100722.09
2024-03-15T06:41:41.810Z,100721.94
2024-03-15T06:44:17.465Z,100733.50
2024-03-15T06:47:03.012Z,100724.63
2024-03-15T06:49:50.241Z,100718.41
2024-03-15T06:52:35.501Z,100729.97
2024-03-15T06:55:03.126Z,100734.34
2024-03-15T06:57:29.723Z,100734.50
2024-03-15T06:59:56.788Z,100743.41
2024-03-15T07:02:23.582Z,100739.88
2024-03-15T07:04:53.253Z,100745.25
2024-03-15T07:07:21.349Z,100749.75
2024-03-15T07:09:48.423Z,100750.59
2024-03-15T07:12:17.918Z,100748.75
2024-03-15T07:14:48.618Z,100754.97
2024-03-15T07:17:17.048Z,100755.81
2024-03-15T07:19:44.020Z,100755.81
2024-03-15T07:22:10.786Z,100753.97
2024-03-15T07:24:38.346Z,100756.63
2024-03-15T07:27:05.791Z,100757.47
2024-03-15T07:29:32.574Z,100759.19
2024-03-15T07:31:59.153Z,100752.13
2024-03-15T07:34:25.870Z,100748.47
2024-03-15T07:36:57.861Z,100758.34
2024-03-15T07:39:30.443Z,100757.34
2024-03-15T07:42:00.457Z,100754.66
2024-03-15T07:44:28.359Z,100761.69
2024-03-15T07:46:57.352Z,100761.53
2024-03-15T07:49:24.917Z,100769.56
2024-03-15T07:51:52.312Z,100765.09
2024-03-15T07:54:24.994Z,100764.06
2024-03-15T07:56:54.450Z,100769.44
2024-03-15T07:59:21.636Z,100767.59
2024-03-15T08:01:48.861Z,100763.06
2024-03-15T08:04:15.921Z,100771.81
2024-03-15T08:06:42.710Z,100765.44
2024-03-15T08:09:12.518Z,100764.44
2024-03-15T08:11:39.449Z,100763.28
2024-03-15T08:14:09.385Z,100765.81
2024-03-15T08:16:36.139Z,100759.44
2024-03-15T08:19:09.405Z,100755.78
2024-03-15T08:21:38.472Z,100759.13
2024-03-15T08:24:06.000Z,100759.81
2024-03-15T08:26:33.554Z,100768.53
2024-03-15T08:29:01.479Z,100760.34
2024-03-15T08:31:28.469Z,100762.88
2024-03-15T08:33:55.051Z,100768.06
2024-03-15T08:36:23.030Z,100774.97
2024-03-15T08:38:49.979Z,100768.78
2024-03-15T08:41:16.849Z,100772.28
2024-03-15T08:43:43.433Z,100765.06
2024-03-15T08:46:11.836Z,100771.28
2024-03-15T08:48:38.833Z,100771.28
2024-03-15T08:51:05.689Z,100767.75
2024-03-15T08:53:33.195Z,100773.97
2024-03-15T08:55:59.823Z,100772.13
2024-03-15T08:58:29.414Z,100765.59
2024-03-15T09:00:56.908Z,100768.97
2024-03-15T09:03:25.228Z,100770.50
2024-03-15T09:05:51.960Z,100774.84
2024-03-15T09:08:20.462Z,100769.34
2024-03-15T09:10:47.080Z,100765.66
2024-03-15T09:13:13.722Z,100773.53
2024-03-15T09:15:40.349Z,100770.72
2024-03-15T09:18:09.791Z,100775.06
2024-03-15T09:20:38.947Z,100781.28
2024-03-15T09:23:05.841Z,100777.44
2024-03-15T09:25:32.574Z,100782.94
2024-03-15T09:28:00.643Z,100791.72
2024-03-15T09:30:28.464Z,100785.50
2024-03-15T09:32:55.628Z,100793.38
2024-03-15T09:35:22.550Z,100788.84
2024-03-15T09:37:52.382Z,100792.22
2024-03-15T09:40:20.096Z,100799.44
2024-03-15T09:43:04.732Z,100802.13
2024-03-15T09:45:32.598Z,100791.41
2024-03-15T09:48:01.965Z,100789.53
2024-03-15T09:50:32.255Z,100786.88
2024-03-15T09:52:58.969Z,100795.75
2024-03-15T09:55:25.661Z,100792.22
2024-03-15T09:57:52.575Z,100802.97
2024-03-15T10:00:25.767Z,100802.97
2024-03-15T10:02:54.770Z,100788.53
2024-03-15T10:05:22.805Z,100802.97
2024-03-15T10:07:50.206Z,100794.91
2024-03-15T10:10:18.490Z,100792.22
2024-03-15T10:12:46.937Z,100794.06
2024-03-15T10:15:16.153Z,100803.97
2024-03-15T10:17:44.999Z,100803.97
2024-03-15T10:20:20.245Z,100801.28
2024-03-15T10:22:49.879Z,100813.72
2024-03-15T10:25:20.433Z,100812.88
2024-03-15T10:27:52.181Z,100820.09
2024-03-15T10:30:23.918Z,100819.38
2024-03-15T10:32:51.771Z,100820.22
2024-03-15T10:35:21.837Z,100817.53
2024-03-15T10:37:49.748Z,100807.81
2024-03-15T10:40:18.791Z,100810.31
2024-03-15T10:42:53.300Z,100804.81
2024-03-15T10:45:27.325Z,100807.34
2024-03-15T10:47:55.982Z,100799.09
2024-03-15T10:50:26.170Z,100794.47
2024-03-15T10:52:55.831Z,100799.84
2024-03-15T10:55:30.873Z,100800.69
2024-03-15T10:57:59.172Z,100797.16
2024-03-15T11:00:29.390Z,100803.06
2024-03-15T11:02:58.642Z,100795.13
2024-03-15T11:05:30.396Z,100800.38
2024-03-15T11:08:14.018Z,100789.94
2024-03-15T11:10:41.800Z,100797.81
2024-03-15T11:13:08.763Z,100791.63
2024-03-15T11:15:37.097Z,100793.47
2024-03-15T11:18:04.828Z,100790.78
2024-03-15T11:20:49.212Z,100782.88
2024-03-15T11:23:18.681Z,100793.31
2024-03-15T11:26:09.132Z,100799.84
2024-03-15T11:28:40.971Z,100793.31
2024-03-15T11:31:18.218Z,100789.09
2024-03-15T11:33:45.603Z,100792.63
2024-03-15T11:36:12.655Z,100787.25
2024-03-15T11:38:46.516Z,100807.06
2024-03-15T11:41:13.802Z,100793.63
2024-03-15T11:43:40.437Z,100792.91
2024-03-15T11:46:09.575Z,100799.84
2024-03-15T11:48:36.612Z,100792.44
2024-03-15T11:51:03.827Z,100788.78
2024-03-15T11:53:31.904Z,100793.16
2024-03-15T11:55:59.596Z,100792.00
2024-03-15T11:58:26.558Z,100777.56
2024-03-15T12:00:54.485Z,100783.59
2024-03-15T12:03:27.728Z,100796.88
2024-03-15T12:05:55.865Z,100801.41
2024-03-15T12:08:24.576Z,100799.56
2024-03-15T12:10:53.207Z,100794.19
2024-03-15T12:13:25.625Z,100796.03
2024-03-15T12:15:53.858Z,100790.50
2024-03-15T12:18:22.755Z,100787.81
2024-03-15T12:20:53.874Z,100786.13
2024-03-15T12:23:23.030Z,100787.81
2024-03-15T12:25:50.920Z,100788.66
2024-03-15T12:28:19.629Z,100793.19
2024-03-15T12:30:47.729Z,100783.28
2024-03-15T12:33:14.981Z,100793.19
2024-03-15T12:35:43.525Z,100788.66
2024-03-15T12:38:19.742Z,100780.59
2024-03-15T12:40:46.764Z,100784.13
2024-03-15T12:43:13.770Z,100788.66
2024-03-15T12:45:42.428Z,100784.97
2024-03-15T12:48:10.901Z,100779.59
2024-03-15T12:50:38.130Z,100785.66
2024-03-15T12:53:08.541Z,100779.28
2024-03-15T12:55:35.465Z,100772.06
2024-03-15T12:58:02.328Z,100780.13
2024-03-15T13:00:31.964Z,100783.63
2024-03-15T13:02:58.903Z,100781.78
2024-03-15T13:05:26.656Z,100777.28
2024-03-15T13:07:53.471Z,100783.31
2024-03-15T13:10:24.065Z,100769.91
2024-03-15T13:12:52.718Z,100778.66
2024-03-15T13:15:20.223Z,100772.94
2024-03-15T13:17:50.354Z,100771.94
2024-03-15T13:20:17.772Z,100770.09
2024-03-15T13:22:45.351Z,100776.13
2024-03-15T13:25:29.517Z,100768.59
2024-03-15T13:28:02.201Z,100765.41
2024-03-15T13:30:28.961Z,100754.34
2024-03-15T13:32:58.439Z,100760.25
2024-03-15T13:35:28.295Z,100766.28
2024-03-15T13:37:54.916Z,100765.31
2024-03-15T13:40:23.506Z,100765.97
2024-03-15T13:42:55.386Z,100774.03
2024-03-15T13:45:24.251Z,100770.34
2024-03-15T13:47:52.884Z,100770.34
2024-03-15T13:50:20.799Z,100768.50
2024-03-15T13:52:49.172Z,100752.53
2024-03-15T13:55:16.868Z,100764.81
2024-03-15T13:57:46.006Z,100769.34
2024-03-15T14:00:35.503Z,100761.94
2024-03-15T14:03:03.572Z,100767.69
2024-03-15T14:05:39.903Z,100766.81
2024-03-15T14:08:14.032Z,100764.00
2024-03-15T14:10:41.022Z,100763.81
2024-03-15T14:13:09.281Z,100769.06
2024-03-15T14:15:40.634Z,100765.34
2024-03-15T14:18:09.772Z,100766.19
2024-03-15T14:20:37.763Z,100771.56
2024-03-15T14:23:05.114Z,100765.50
2024-03-15T14:25:34.789Z,100763.69
2024-03-15T14:28:07.374Z,100764.66
2024-03-15T14:30:36.372Z,100774.44
2024-03-15T14:33:04.687Z,100761.81
2024-03-15T14:35:31.674Z,100763.69
2024-03-15T14:37:58.369Z,100774.25
2024-03-15T14:40:28.131Z,100761.66
2024-03-15T14:42:55.724Z,100763.31
2024-03-15T14:45:23.947Z,100759.66
2024-03-15T14:47:55.579Z,100760.63
2024-03-15T14:50:25.532Z,100757.94
2024-03-15T14:52:52.245Z,100750.91
2024-03-15T14:55:19.430Z,100756.28
2024-03-15T14:57:46.061Z,100768.03
2024-03-15T15:00:16.468Z,100760.13
2024-03-15T15:02:44.811Z,100759.13
2024-03-15T15:05:12.016Z,100765.19
2024-03-15T15:07:38.730Z,100762.34
2024-03-15T15:10:09.314Z,100753.41
2024-03-15T15:12:37.120Z,100753.41
2024-03-15T15:15:07.909Z,100749.75
2024-03-15T15:17:37.926Z,100750.72
2024-03-15T15:20:11.134Z,100755.13
2024-03-15T15:22:42.655Z,100755.13
2024-03-15T15:25:12.016Z,100760.13
2024-03-15T15:27:39.785Z,100758.97
2024-03-15T15:30:10.494Z,100759.81
2024-03-15T15:32:37.681Z,100755.13
2024-03-15T15:35:09.300Z,100753.94
2024-03-15T15:37:39.674Z,100760.00
2024-03-15T15:40:14.570Z,100759.81
2024-03-15T15:42:42.111Z,100750.75
2024-03-15T15:45:09.299Z,100748.94
2024-03-15T15:47:36.104Z,100764.72
2024-03-15T15:50:06.860Z,100761.88
2024-03-15T15:52:36.177Z,100761.69
2024-03-15T15:55:04.129Z,100757.34
2024-03-15T15:57:31.286Z,100764.25
2024-03-15T15:59:59.543Z,100759.56
2024-03-15T16:02:26.222Z,100775.69
2024-03-15T16:04:53.469Z,100770.31
2024-03-15T16:07:20.057Z,100773.81
2024-03-15T16:09:46.693Z,100772.81
2024-03-15T16:12:13.271Z,100779.91
2024-03-15T16:14:39.871Z,100766.44
2024-03-15T16:17:13.672Z,100762.75
2024-03-15T16:19:40.279Z,100766.28
2024-03-15T16:22:06.928Z,100768.97
2024-03-15T16:24:33.611Z,100775.19
2024-03-15T16:27:01.771Z,100776.84
2024-03-15T16:29:28.355Z,100777.88
2024-03-15T16:31:55.690Z,100778.69
2024-03-15T16:34:22.338Z,100783.25
2024-03-15T16:36:49.078Z,100782.22
2024-03-15T16:39:19.191Z,100790.47
2024-03-15T16:41:46.131Z,100778.69
2024-03-15T16:44:12.686Z,100797.53
2024-03-15T16:46:39.473Z,100795.84
2024-03-15T16:49:06.137Z,100792.16
2024-03-15T16:51:32.863Z,100795.69
2024-03-15T16:53:59.459Z,100797.53
2024-03-15T16:56:26.101Z,100800.06
2024-03-15T16:58:52.640Z,100804.63
2024-03-15T17:01:19.286Z,100801.94
2024-03-15T17:03:46.212Z,100807.31
2024-03-15T17:06:13.189Z,100808.97
2024-03-15T17:08:40.279Z,100808.13
2024-03-15T17:11:08.060Z,100805.28
2024-03-15T17:13:34.628Z,100803.59
2024-03-15T17:16:01.361Z,100810.66
2024-03-15T17:18:27.998Z,100807.13
2024-03-15T17:20:54.891Z,100809.81
2024-03-15T17:23:22.115Z,100811.66
2024-03-15T17:25:53.676Z,100807.31
2024-03-15T17:28:20.600Z,100824.41
2024-03-15T17:30:52.201Z,100822.22
2024-03-15T17:33:19.097Z,100813.50
2024-03-15T17:35:48.723Z,100824.53
2024-03-15T17:38:15.424Z,100824.03
2024-03-15T17:40:43.955Z,100821.66
2024-03-15T17:43:10.600Z,100829.91
2024-03-15T17:45:38.802Z,100825.69
2024-03-15T17:48:06.059Z,100833.09
2024-03-15T17:50:32.687Z,100834.25
2024-03-15T17:53:00.051Z,100846.00
2024-03-15T17:55:26.878Z,100847.03
2024-03-15T17:57:55.226Z,100841.97
2024-03-15T18:00:22.159Z,100851.88
2024-03-15T18:02:49.516Z,100851.19
2024-03-15T18:05:16.111Z,100853.19
2024-03-15T18:07:42.854Z,100863.25
2024-03-15T18:10:10.883Z,100865.94
2024-03-15T18:12:41.211Z,100861.59
2024-03-15T18:15:08.149Z,100871.63
2024-03-15T18:17:34.772Z,100865.59
2024-03-15T18:20:02.275Z,100872.81
2024-03-15T18:22:28.940Z,100870.28
2024-03-15T18:24:55.555Z,100870.13
2024-03-15T18:27:22.411Z,100873.13
2024-03-15T18:29:49.075Z,100877.66
2024-03-15T18:32:15.829Z,100874.16
2024-03-15T18:34:42.441Z,100872.44
2024-03-15T18:37:10.674Z,100884.19
2024-03-15T18:39:38.987Z,100877.97
2024-03-15T18:42:07.177Z,100877.31
2024-03-15T18:44:33.872Z,100883.34
2024-03-15T18:47:00.529Z,100886.75
2024-03-15T18:49:29.955Z,100879.53
2024-03-15T18:51:57.396Z,100878.34
2024-03-15T18:54:23.984Z,100880.03
2024-03-15T18:56:53.204Z,100887.94
2024-03-15T18:59:30.990Z,100882.56
2024-03-15T19:01:58.045Z,100893.13
2024-03-15T19:04:24.781Z,100882.38
2024-03-15T19:06:51.426Z,100885.94
2024-03-15T19:09:18.005Z,100879.69
2024-03-15T19:11:45.043Z,100880.56
2024-03-15T19:14:11.692Z,100883.25
2024-03-15T19:16:39.011Z,100883.06
2024-03-15T19:19:05.950Z,100884.94
2024-03-15T19:21:32.827Z,100888.47
2024-03-15T19:23:59.541Z,100890.13
2024-03-15T19:26:26.173Z,100892.81
2024-03-15T19:28:52.728Z,100889.28
2024-03-15T19:31:19.318Z,100896.34
2024-03-15T19:33:45.913Z,100901.72
2024-03-15T19:36:13.005Z,100891.81
2024-03-15T19:38:39.708Z,100890.97
2024-03-15T19:41:11.950Z,100896.34
2024-03-15T19:43:40.784Z,100895.50
2024-03-15T19:46:07.814Z,100896.34
2024-03-15T19:48:34.631Z,100908.94
2024-03-15T19:51:01.896Z,100903.56
2024-03-15T19:53:30.453Z,100909.78
2024-03-15T19:55:59.625Z,100905.25
2024-03-15T19:58:29.887Z,100899.72
2024-03-15T20:00:58.352Z,100904.09
2024-03-15T20:03:25.261Z,100898.53
2024-03-15T20:05:55.518Z,100897.72
2024-03-15T20:08:23.482Z,100900.25
2024-03-15T20:10:50.588Z,100902.59
2024-03-15T20:13:17.199Z,100897.06
2024-03-15T20:15:47.196Z,100899.59
2024-03-15T20:18:13.864Z,100893.06
2024-03-15T20:20:41.468Z,100897.44
2024-03-15T20:23:09.036Z,100897.25
2024-03-15T20:25:35.737Z,100899.78
2024-03-15T20:28:04.386Z,100903.16
2024-03-15T20:30:31.808Z,100900.31
2024-03-15T20:33:00.105Z,100899.31
2024-03-15T20:35:29.248Z,100903.53
2024-03-15T20:37:57.611Z,100898.81
2024-03-15T20:40:27.985Z,100896.97
2024-03-15T20:42:56.077Z,100904.09
2024-03-15T20:45:23.570Z,100907.63
2024-03-15T20:47:51.088Z,100908.28
2024-03-15T20:50:18.317Z,100908.97
2024-03-15T20:52:44.886Z,100904.56
2024-03-15T20:55:12.247Z,100916.84
2024-03-15T20:57:38.945Z,100916.03
2024-03-15T21:00:08.760Z,100916.84
2024-03-15T21:02:35.481Z,100910.66
2024-03-15T21:05:02.277Z,100909.94
2024-03-15T21:07:29.032Z,100909.13
2024-03-15T21:09:55.734Z,100916.34
2024-03-15T21:12:28.110Z,100924.59
2024-03-15T21:14:54.841Z,100920.22
2024-03-15T21:17:21.511Z,100923.75
2024-03-15T21:19:52.846Z,100930.97
2024-03-15T21:22:19.704Z,100938.03
2024-03-15T21:24:49.418Z,100936.34
2024-03-15T21:27:18.288Z,100938.03
2024-03-15T21:29:44.920Z,100932.66
2024-03-15T21:32:11.501Z,100936.19
2024-03-15T21:34:38.274Z,100939.69
2024-03-15T21:37:04.994Z,100944.91
2024-03-15T21:39:31.875Z,100949.31
2024-03-15T21:41:58.933Z,100945.78
2024-03-15T21:44:28.381Z,100943.94
2024-03-15T21:46:54.964Z,100960.91
2024-03-15T21:49:21.596Z,100960.06
2024-03-15T21:51:48.691Z,100952.84
2024-03-15T21:54:15.494Z,100960.72
2024-03-15T21:56:43.929Z,100956.19
2024-03-15T21:59:10.603Z,100955.19
2024-03-15T22:01:38.196Z,100957.72
2024-03-15T22:04:05.644Z,100955.03
2024-03-15T22:06:40.231Z,100952.34
2024-03-15T22:09:07.325Z,100954.03
2024-03-15T22:11:33.925Z,100960.22
2024-03-15T22:14:06.892Z,100963.75
2024-03-15T22:16:36.942Z,100964.63
2024-03-15T22:19:05.464Z,100964.47
2024-03-15T22:21:32.298Z,100961.78
2024-03-15T22:23:58.896Z,100959.91
2024-03-15T22:26:25.433Z,100968.00
2024-03-15T22:28:52.023Z,100961.59
2024-03-15T22:31:18.670Z,100967.81
2024-03-15T22:33:45.320Z,100970.50
2024-03-15T22:36:11.920Z,100977.38
2024-03-15T22:38:38.521Z,100977.03
2024-03-15T22:41:05.092Z,100974.00
2024-03-15T22:43:33.016Z,100971.91
2024-03-15T22:46:00.598Z,100973.22
2024-03-15T22:48:27.222Z,100969.84
2024-03-15T22:50:53.848Z,100975.38
2024-03-15T22:53:20.406Z,100972.88
2024-03-15T22:55:47.083Z,100971.16
2024-03-15T22:58:13.826Z,100966.78
2024-03-15T23:00:48.911Z,100970.66
2024-03-15T23:03:16.071Z,100976.03
2024-03-15T23:05:44.329Z,100966.44
2024-03-15T23:08:11.165Z,100984.41
2024-03-15T23:10:41.316Z,100977.50
2024-03-15T23:13:09.559Z,100983.06
2024-03-15T23:15:39.806Z,100987.59
2024-03-15T23:18:10.427Z,100985.03
2024-03-15T23:20:37.162Z,100983.34
2024-03-15T23:23:03.874Z,100995.13
2024-03-15T23:25:30.571Z,100989.88
2024-03-15T23:27:57.215Z,100995.59
2024-03-15T23:30:24.181Z,100992.91
2024-03-15T23:32:52.990Z,101000.44
2024-03-15T23:35:20.620Z,101003.97
2024-03-15T23:37:48.035Z,100999.75
2024-03-15T23:40:15.978Z,101001.59
2024-03-15T23:42:43.018Z,101007.13
2024-03-15T23:45:09.717Z,101015.31
2024-03-15T23:47:37.132Z,101003.06
2024-03-15T23:50:05.272Z,101012.09
2024-03-15T23:52:31.959Z,101015.81
2024-03-15T23:54:58.654Z,101020.50
2024-03-15T23:57:25.968Z,101016.97
2024-03-15T23:59:52.648Z,101020.81
